WetterOnline ( https://www.wetteronline.de )

Wetter aktuell Nordrup

Aktuelles Wetter: Flakkebjerg (34m)

6-stündlich | Neueste Meldungen
Ortszeit Temperatur Wetter
Mi, 22.09. 8:00 11.0° C bewölkt
Mi, 22.09. 2:00 12.3° C wolkig
Di, 21.09. 20:00 13.3° C wolkenlos
Di, 21.09. 14:00 14.3° C bewölkt
Di, 21.09. 8:00 7.7° C fast wolkenlos
Di, 21.09. 2:00 7.5° C bewölkt
Mo, 20.09. 20:00 11.5° C bedeckt
Mo, 20.09. 14:00 13.3° C bewölkt
Ortszeit Temperatur Wetter
Mi, 22.09. 13:00 17.3° C leicht bewölkt
Mi, 22.09. 12:00 15.6° C bewölkt
Mi, 22.09. 11:00 15.6° C leicht bewölkt
Mi, 22.09. 10:00 15.0° C wolkenlos
Mi, 22.09. 9:00 13.1° C fast wolkenlos
Mi, 22.09. 8:00 11.0° C bewölkt
Ortszeit Relative Feuchte Sichtweite
Mi, 22.09. 8:00 100% 7 km
Mi, 22.09. 2:00 92% 11 km
Di, 21.09. 20:00 80% 19 km
Di, 21.09. 14:00 96% 23 km
Di, 21.09. 8:00 93% 18 km
Di, 21.09. 2:00 85% 21 km
Mo, 20.09. 20:00 66% 45 km
Mo, 20.09. 14:00 50% 40 km
Ortszeit Relative Feuchte Sichtweite
Mi, 22.09. 13:00 72% 17 km
Mi, 22.09. 12:00 78% 16 km
Mi, 22.09. 11:00 78% 15 km
Mi, 22.09. 10:00 87% 12 km
Mi, 22.09. 9:00 100% 10 km
Mi, 22.09. 8:00 100% 7 km
Ortszeit Niederschlagsmenge Niederschlagsart
Mi, 22.09. 8:00 0.0 l/m2 in 3 Std. -
Mi, 22.09. 2:00 keine Meldung -
Di, 21.09. 20:00 1 l/m2 in 12 Std. Regenschauer
Di, 21.09. 14:00 0.9 l/m2 in 3 Std. Regenschauer
Di, 21.09. 8:00 keine Meldung -
Di, 21.09. 2:00 0.0 l/m2 in 3 Std. -
Mo, 20.09. 20:00 keine Meldung -
Mo, 20.09. 14:00 keine Meldung -
Ortszeit Niederschlagsmenge Niederschlagsart
Mi, 22.09. 13:00 0.0 l/m2 in 1 Std. -
Mi, 22.09. 12:00 0.0 l/m2 in 1 Std. -
Mi, 22.09. 11:00 keine Meldung -
Mi, 22.09. 10:00 keine Meldung -
Mi, 22.09. 9:00 0.0 l/m2 in 1 Std. -
Mi, 22.09. 8:00 0.0 l/m2 in 1 Std. -
Ortszeit Stärke Spitze Richtung
km/h Bft. km/h Grad Sektor
Mi, 22.09. 8:00 4 1 - 250° W
Mi, 22.09. 2:00 6 1 - 320° NW
Di, 21.09. 20:00 9 2 - 320° NW
Di, 21.09. 14:00 14 3 - 230° SW
Di, 21.09. 8:00 2 1 - 50° NO
Di, 21.09. 2:00 0 0 - 20° N
Mo, 20.09. 20:00 6 1 - 10° N
Mo, 20.09. 14:00 4 1 - 30° NO
Ortszeit Stärke Spitze Richtung
km/h Bft. km/h Grad Sektor
Mi, 22.09. 13:00 18 3 - 240° SW
Mi, 22.09. 12:00 17 3 - 280° W
Mi, 22.09. 11:00 15 3 - 280° W
Mi, 22.09. 10:00 9 2 - 270° W
Mi, 22.09. 9:00 6 1 - 260° W
Mi, 22.09. 8:00 4 1 - 250° W
Ortszeit Untergrenze Bedeckung Gattung
total tief tief mittel hoch
Mi, 22.09. 8:00 3000 m 7/8 7/8 - - -
Mi, 22.09. 2:00 570 m 8/8 1/8 - - -
Di, 21.09. 20:00 - 0/8 0/8 - - -
Di, 21.09. 14:00 120 m 7/8 7/8 - - -
Di, 21.09. 8:00 6900 m 1/8 1/8 - - -
Di, 21.09. 2:00 2100 m 7/8 7/8 - - -
Mo, 20.09. 20:00 2100 m 8/8 8/8 - - -
Mo, 20.09. 14:00 1440 m 7/8 7/8 - - -
Ortszeit Bedeckungsgrad in Achtel und Wolkenuntergrenze
Mi, 22.09. 13:00 3(600m)
Mi, 22.09. 12:00 3(510m) 5(600m) 7(720m)
Mi, 22.09. 11:00 1(390m) 3(510m)
Mi, 22.09. 10:00 keine Wolken
Mi, 22.09. 9:00 1(2400m)
Mi, 22.09. 8:00 7(3000m)
Ortszeit Luftdruck NN (hPa) Tendenz (hPa in 3 Std.)
Mi, 22.09. 8:00 1026 + 0,3
Mi, 22.09. 2:00 1025 + 0,4
Di, 21.09. 20:00 1024 + 1,3
Di, 21.09. 14:00 1024 - 1,3
Di, 21.09. 8:00 1026 - 0,2
Di, 21.09. 2:00 1026 + 0,3
Mo, 20.09. 20:00 1025 + 1,1
Mo, 20.09. 14:00 1024 0,0
Ortszeit Luftdruck NN (hPa) Tendenz (hPa in 3 Std.)
Mi, 22.09. 13:00 1024 - 1,1
Mi, 22.09. 12:00 1025 - 0,2
Mi, 22.09. 11:00 1025 - 0,3
Mi, 22.09. 10:00 1025 + 0,1
Mi, 22.09. 9:00 1026 + 0,3
Mi, 22.09. 8:00 1026 + 0,3
Ortszeit Schneehöhe (cm)
Mi, 22.09. 8:00 -
Mi, 22.09. 2:00 -
Di, 21.09. 20:00 -
Di, 21.09. 14:00 -
Di, 21.09. 8:00 -
Di, 21.09. 2:00 -
Mo, 20.09. 20:00 -
Mo, 20.09. 14:00 -
Ortszeit Schneehöhe (cm)
Mi, 22.09. 13:00 -
Mi, 22.09. 12:00 -
Mi, 22.09. 11:00 -
Mi, 22.09. 10:00 -
Mi, 22.09. 9:00 -
Mi, 22.09. 8:00 -
Link zu dieser Seite / Seite empfehlen

Das Wetter in ...